createdAt,value
2022-10-14T00:01:12.631Z,7.82
2022-10-14T00:03:40.495Z,7.85
2022-10-14T00:06:09.106Z,7.43
2022-10-14T00:08:35.904Z,8.23
2022-10-14T00:11:08.169Z,8.30
2022-10-14T00:13:35.598Z,8.13
2022-10-14T00:16:03.494Z,7.43
2022-10-14T00:18:30.586Z,7.57
2022-10-14T00:21:03.005Z,8.18
2022-10-14T00:23:29.613Z,7.70
2022-10-14T00:25:56.398Z,7.82
2022-10-14T00:28:23.142Z,7.78
2022-10-14T00:30:54.499Z,9.10
2022-10-14T00:33:21.222Z,8.15
2022-10-14T00:35:58.533Z,8.13
2022-10-14T00:38:25.199Z,8.27
2022-10-14T00:40:52.446Z,8.57
2022-10-14T00:43:20.594Z,10.45
2022-10-14T00:45:47.203Z,10.70
2022-10-14T00:48:14.609Z,11.15
2022-10-14T00:50:43.924Z,9.43
2022-10-14T00:53:12.001Z,9.23
2022-10-14T00:55:40.190Z,9.10
2022-10-14T00:58:07.331Z,8.90
2022-10-14T01:00:34.142Z,9.38
2022-10-14T01:03:00.963Z,10.02
2022-10-14T01:05:36.407Z,10.25
2022-10-14T01:08:09.052Z,11.05
2022-10-14T01:10:43.647Z,9.85
2022-10-14T01:13:25.085Z,11.10
2022-10-14T01:16:14.650Z,10.63
2022-10-14T01:18:55.078Z,10.73
2022-10-14T01:21:42.873Z,10.93
2022-10-14T01:24:21.744Z,11.05
2022-10-14T01:27:13.214Z,10.02
2022-10-14T01:30:06.629Z,10.65
2022-10-14T01:32:54.821Z,11.20
2022-10-14T01:35:40.206Z,11.48
2022-10-14T01:38:34.653Z,10.52
2022-10-14T01:41:16.193Z,11.18
2022-10-14T01:43:46.647Z,10.23
2022-10-14T01:46:13.871Z,10.90
2022-10-14T01:48:46.820Z,11.10
2022-10-14T01:51:18.649Z,11.15
2022-10-14T01:53:54.943Z,10.20
2022-10-14T01:56:22.602Z,11.07
2022-10-14T01:58:51.845Z,11.20
2022-10-14T02:01:18.806Z,11.48
2022-10-14T02:03:48.006Z,10.43
2022-10-14T02:06:17.755Z,10.45
2022-10-14T02:08:59.992Z,10.80
2022-10-14T02:11:28.990Z,10.68
2022-10-14T02:14:37.830Z,10.32
2022-10-14T02:17:15.447Z,10.13
2022-10-14T02:20:00.654Z,10.10
2022-10-14T02:22:46.758Z,9.82
2022-10-14T02:25:26.213Z,10.10
2022-10-14T02:30:20.902Z,10.45
2022-10-14T02:32:50.017Z,10.00
2022-10-14T02:35:19.456Z,10.05
2022-10-14T02:37:48.457Z,9.95
2022-10-14T02:40:23.513Z,9.20
2022-10-14T02:42:50.390Z,10.00
2022-10-14T02:45:18.131Z,9.60
2022-10-14T02:47:45.003Z,9.10
2022-10-14T02:50:12.031Z,9.18
2022-10-14T02:52:38.904Z,9.82
2022-10-14T02:55:06.046Z,8.25
2022-10-14T02:57:33.133Z,8.93
2022-10-14T02:59:59.773Z,9.02
2022-10-14T03:02:26.464Z,9.63
2022-10-14T03:04:52.981Z,10.13
2022-10-14T03:07:19.483Z,9.13
2022-10-14T03:09:46.036Z,9.65
2022-10-14T03:12:12.554Z,9.05
2022-10-14T03:14:39.307Z,9.48
2022-10-14T03:17:05.811Z,8.70
2022-10-14T03:19:32.307Z,8.68
2022-10-14T03:21:58.782Z,8.35
2022-10-14T03:24:25.631Z,8.77
2022-10-14T03:26:52.233Z,8.75
2022-10-14T03:29:18.718Z,9.20
2022-10-14T03:31:45.214Z,8.90
2022-10-14T03:34:11.699Z,8.70
2022-10-14T03:36:38.203Z,9.27
2022-10-14T03:39:04.840Z,7.80
2022-10-14T03:41:31.342Z,8.95
2022-10-14T03:43:58.196Z,8.10
2022-10-14T03:46:24.787Z,7.65
2022-10-14T03:48:52.067Z,8.88
2022-10-14T03:51:18.926Z,8.23
2022-10-14T03:53:45.685Z,7.88
2022-10-14T03:56:12.573Z,6.82
2022-10-14T03:58:39.452Z,5.72
2022-10-14T04:01:05.976Z,5.38
2022-10-14T04:03:32.509Z,4.10
2022-10-14T04:05:59.043Z,3.72
2022-10-14T04:08:25.661Z,3.88
2022-10-14T04:10:55.893Z,3.40
2022-10-14T04:13:22.725Z,2.72
2022-10-14T04:15:49.365Z,2.47
2022-10-14T04:18:16.106Z,2.85
2022-10-14T04:20:42.690Z,2.50
2022-10-14T04:23:09.386Z,2.83
2022-10-14T04:25:39.262Z,2.58
2022-10-14T04:28:05.967Z,2.60
2022-10-14T04:30:32.482Z,2.65
2022-10-14T04:32:58.987Z,2.40
2022-10-14T04:35:25.592Z,2.50
2022-10-14T04:37:52.097Z,2.10
2022-10-14T04:40:20.479Z,2.50
2022-10-14T04:42:47.121Z,2.47
2022-10-14T04:45:13.813Z,2.30
2022-10-14T04:47:43.847Z,2.22
2022-10-14T04:50:13.011Z,2.65
2022-10-14T04:52:39.707Z,2.47
2022-10-14T04:55:06.532Z,2.58
2022-10-14T04:57:33.287Z,2.60
2022-10-14T05:00:00.075Z,2.65
2022-10-14T05:02:26.562Z,2.65
2022-10-14T05:04:53.034Z,2.40
2022-10-14T05:07:19.949Z,2.60
2022-10-14T05:09:50.380Z,3.33
2022-10-14T05:12:18.797Z,3.33
2022-10-14T05:14:45.607Z,3.25
2022-10-14T05:17:12.372Z,3.35
2022-10-14T05:19:38.978Z,4.03
2022-10-14T05:22:05.567Z,4.20
2022-10-14T05:24:32.051Z,4.65
2022-10-14T05:26:58.749Z,4.68
2022-10-14T05:29:25.404Z,4.38
2022-10-14T05:31:51.930Z,4.72
2022-10-14T05:34:18.422Z,5.40
2022-10-14T12:39:19.401Z,9.32
2022-10-14T12:42:13.904Z,9.60
2022-10-14T12:44:58.710Z,9.70
2022-10-14T12:47:37.012Z,9.60
2022-10-14T12:50:26.307Z,9.55
2022-10-14T12:52:58.981Z,9.05
2022-10-14T12:55:29.700Z,8.93
2022-10-14T12:58:00.618Z,8.65
2022-10-14T13:00:32.264Z,9.93
2022-10-14T13:03:27.524Z,8.95
2022-10-14T13:06:37.552Z,8.65
2022-10-14T13:09:13.140Z,8.77
2022-10-14T13:11:52.866Z,8.13
2022-10-14T13:14:42.822Z,7.97
2022-10-14T13:17:28.417Z,8.20
2022-10-14T13:19:55.179Z,8.18
2022-10-14T13:22:31.374Z,8.02
2022-10-14T13:25:27.655Z,8.07
2022-10-14T13:28:13.585Z,7.40
2022-10-14T13:30:58.111Z,7.63
2022-10-14T13:33:38.802Z,7.65
2022-10-14T13:36:32.292Z,7.55
2022-10-14T13:39:01.221Z,8.07
2022-10-14T13:41:31.415Z,8.35
2022-10-14T13:44:04.532Z,7.63
2022-10-14T13:46:42.579Z,6.90
2022-10-14T13:49:27.823Z,7.25
2022-10-14T13:52:07.899Z,7.20
2022-10-14T13:54:34.653Z,7.22
2022-10-14T14:02:55.141Z,6.80
2022-10-14T14:05:26.149Z,7.72
2022-10-14T14:10:57.478Z,7.47
2022-10-14T14:13:31.868Z,7.35
2022-10-14T14:15:59.738Z,7.25
2022-10-14T14:18:49.470Z,7.10
2022-10-14T14:21:25.526Z,6.97
2022-10-14T14:23:53.771Z,7.15
2022-10-14T14:26:26.020Z,8.25
2022-10-14T14:28:53.582Z,6.40
2022-10-14T14:31:23.766Z,7.05
2022-10-14T14:33:51.380Z,7.43
2022-10-14T14:36:27.614Z,7.10
2022-10-14T14:39:01.779Z,6.90
2022-10-14T14:41:32.558Z,8.07
2022-10-14T14:44:25.770Z,7.50
2022-10-14T14:46:55.007Z,12.85
2022-10-14T14:49:27.166Z,10.68
2022-10-14T14:51:54.730Z,12.95
2022-10-14T14:54:23.086Z,10.98
2022-10-14T14:57:08.091Z,8.90
2022-10-14T14:59:42.146Z,7.28
2022-10-14T15:02:23.335Z,6.10
2022-10-14T15:05:08.043Z,5.63
2022-10-14T15:07:35.831Z,5.97
2022-10-14T15:10:06.451Z,5.30
2022-10-14T15:12:42.363Z,5.57
2022-10-14T15:15:30.917Z,5.03
2022-10-14T15:18:13.194Z,4.67
2022-10-14T15:20:43.045Z,4.90
2022-10-14T15:23:45.802Z,4.70
2022-10-14T15:26:30.158Z,4.90
2022-10-14T15:29:12.716Z,5.15
2022-10-14T15:31:40.961Z,4.97
2022-10-14T15:34:17.567Z,4.53
2022-10-14T15:36:44.512Z,3.92
2022-10-14T15:39:13.711Z,3.63
2022-10-14T15:41:41.696Z,3.97
2022-10-14T15:44:08.204Z,4.13
2022-10-14T15:46:57.100Z,4.57
2022-10-14T15:49:28.385Z,4.30
2022-10-14T15:51:57.130Z,4.35
2022-10-14T15:54:27.553Z,3.78
2022-10-14T15:59:27.509Z,4.50
2022-10-14T16:02:00.104Z,4.90
2022-10-14T16:04:27.848Z,4.93
2022-10-14T16:06:56.401Z,6.75
2022-10-14T16:09:24.083Z,5.72
2022-10-14T16:11:57.155Z,4.85
2022-10-14T16:14:25.202Z,4.25
2022-10-14T16:16:51.728Z,4.28
2022-10-14T16:19:18.780Z,4.40
2022-10-14T16:21:45.960Z,4.60
2022-10-14T16:24:18.520Z,4.47
2022-10-14T16:26:45.100Z,4.20
2022-10-14T16:29:11.622Z,4.53
2022-10-14T16:31:38.949Z,4.07
2022-10-14T16:34:05.497Z,4.22
2022-10-14T16:36:32.176Z,4.13
2022-10-14T16:39:00.404Z,3.97
2022-10-14T16:41:27.457Z,3.92
2022-10-14T16:43:54.009Z,4.30
2022-10-14T16:46:40.532Z,4.47
2022-10-14T16:49:07.863Z,4.15
2022-10-14T16:51:34.447Z,3.90
2022-10-14T16:54:01.055Z,4.90
2022-10-14T16:56:46.133Z,4.50
2022-10-14T16:59:13.710Z,4.50
2022-10-14T17:01:40.422Z,4.10
2022-10-14T17:04:07.056Z,4.18
2022-10-14T17:06:33.656Z,3.67
2022-10-14T17:09:00.222Z,4.30
